createdAt,value
2017-09-11T00:00:00.920Z,0
2017-09-11T00:00:41.504Z,0
2017-09-11T00:01:22.082Z,0
2017-09-11T00:02:02.660Z,0
2017-09-11T00:02:43.228Z,0
2017-09-11T00:03:23.809Z,0
2017-09-11T00:04:04.391Z,0
2017-09-11T00:04:44.974Z,0
2017-09-11T00:05:25.558Z,0
2017-09-11T00:06:06.138Z,0
2017-09-11T00:06:46.724Z,0
2017-09-11T00:07:27.298Z,0
2017-09-11T00:08:07.880Z,0
2017-09-11T00:08:48.461Z,0
2017-09-11T00:09:29.040Z,0
2017-09-11T00:10:09.612Z,0
2017-09-11T00:10:50.193Z,0
2017-09-11T00:11:30.763Z,0
2017-09-11T00:12:11.342Z,0
2017-09-11T00:12:51.922Z,0
2017-09-11T00:13:32.495Z,0
2017-09-11T00:14:13.081Z,0
2017-09-11T00:14:53.646Z,0
2017-09-11T00:15:34.217Z,0
2017-09-11T00:16:14.814Z,0
2017-09-11T00:16:55.392Z,0
2017-09-11T00:17:35.972Z,0
2017-09-11T00:18:16.554Z,0
2017-09-11T00:18:57.140Z,0
2017-09-11T00:19:37.735Z,0
2017-09-11T00:20:18.318Z,0
2017-09-11T00:20:58.907Z,0
2017-09-11T00:21:39.478Z,0
2017-09-11T00:22:20.064Z,0
2017-09-11T00:23:00.637Z,0
2017-09-11T00:23:41.217Z,0
2017-09-11T00:24:21.801Z,0
2017-09-11T00:25:02.383Z,0
2017-09-11T00:25:42.962Z,0
2017-09-11T00:26:23.542Z,0
2017-09-11T00:27:04.122Z,0
2017-09-11T00:27:44.701Z,0
2017-09-11T00:28:25.269Z,0
2017-09-11T00:29:05.856Z,0
2017-09-11T00:29:46.438Z,0
2017-09-11T00:30:27.017Z,0
2017-09-11T00:31:07.601Z,0
2017-09-11T00:31:48.182Z,0
2017-09-11T00:32:28.762Z,0
2017-09-11T00:33:09.343Z,0
2017-09-11T00:33:49.927Z,0
2017-09-11T00:34:30.506Z,0
2017-09-11T00:35:11.087Z,0
2017-09-11T00:35:51.662Z,0
2017-09-11T00:36:32.248Z,0
2017-09-11T00:37:12.830Z,0
2017-09-11T00:37:53.409Z,0
2017-09-11T00:38:33.990Z,0
2017-09-11T00:39:14.575Z,0
2017-09-11T00:39:55.142Z,0
2017-09-11T00:40:35.724Z,0
2017-09-11T00:41:16.308Z,0
2017-09-11T00:41:56.884Z,0
2017-09-11T00:42:37.463Z,0
2017-09-11T00:43:18.043Z,0
2017-09-11T00:43:58.628Z,0
2017-09-11T00:44:39.200Z,0
2017-09-11T00:45:19.784Z,0
2017-09-11T00:46:00.364Z,0
2017-09-11T00:46:40.946Z,0
2017-09-11T00:47:21.535Z,0
2017-09-11T00:48:02.106Z,0
2017-09-11T00:48:42.687Z,0
2017-09-11T00:49:23.262Z,0
2017-09-11T00:50:03.834Z,0
2017-09-11T00:50:44.415Z,0
2017-09-11T00:51:24.998Z,0
2017-09-11T00:52:05.566Z,0
2017-09-11T00:52:46.142Z,0
2017-09-11T00:53:26.721Z,0
2017-09-11T00:54:07.316Z,0
2017-09-11T00:54:47.886Z,0
2017-09-11T00:55:28.470Z,0
2017-09-11T00:56:09.054Z,0
2017-09-11T00:56:49.636Z,0
2017-09-11T00:57:30.215Z,0
2017-09-11T00:58:10.786Z,0
2017-09-11T00:58:51.361Z,0
2017-09-11T00:59:31.937Z,0
2017-09-11T01:00:12.519Z,0
2017-09-11T01:00:53.094Z,0
2017-09-11T01:01:33.674Z,0
2017-09-11T01:02:14.251Z,0
2017-09-11T01:02:54.831Z,0
2017-09-11T01:03:35.411Z,0
2017-09-11T01:04:15.984Z,0
2017-09-11T01:04:56.566Z,0
2017-09-11T01:05:37.153Z,0
2017-09-11T01:06:17.727Z,0
2017-09-11T01:06:58.312Z,0
2017-09-11T01:07:38.884Z,0
2017-09-11T01:08:19.461Z,0
2017-09-11T01:09:00.038Z,0
2017-09-11T01:09:40.614Z,0
2017-09-11T01:10:21.192Z,0
2017-09-11T01:11:01.765Z,0
2017-09-11T01:11:42.350Z,0
2017-09-11T01:12:22.930Z,0
2017-09-11T01:13:03.507Z,0
2017-09-11T01:13:44.085Z,0
2017-09-11T01:14:24.669Z,0
2017-09-11T01:15:05.236Z,0
2017-09-11T01:15:45.824Z,0
2017-09-11T01:16:26.404Z,0
2017-09-11T01:17:06.977Z,0
2017-09-11T01:17:47.560Z,0
2017-09-11T01:18:28.134Z,0
2017-09-11T01:19:08.723Z,0
2017-09-11T01:19:49.303Z,0
2017-09-11T01:20:29.886Z,0
2017-09-11T01:21:10.466Z,0
2017-09-11T01:21:51.049Z,0
2017-09-11T01:22:31.625Z,0
2017-09-11T01:23:12.204Z,0
2017-09-11T01:23:52.786Z,0
2017-09-11T01:24:33.363Z,0
2017-09-11T01:25:13.946Z,0
2017-09-11T01:25:54.524Z,0
2017-09-11T01:26:35.096Z,0
2017-09-11T01:27:15.683Z,0
2017-09-11T01:27:56.265Z,0
2017-09-11T01:28:36.848Z,0
2017-09-11T01:29:17.430Z,0
2017-09-11T01:29:58.011Z,0
2017-09-11T01:30:38.595Z,0
2017-09-11T01:31:19.172Z,0
2017-09-11T01:31:59.756Z,0
2017-09-11T01:32:40.341Z,0
2017-09-11T01:33:20.927Z,0
2017-09-11T01:34:01.500Z,0
2017-09-11T01:34:42.077Z,0
2017-09-11T01:35:22.655Z,0
2017-09-11T01:36:03.241Z,0
2017-09-11T01:36:43.821Z,0
2017-09-11T01:37:24.400Z,0
2017-09-11T01:38:04.973Z,0
2017-09-11T01:38:45.547Z,0
2017-09-11T01:39:26.137Z,0
2017-09-11T01:40:06.723Z,0
2017-09-11T01:40:47.291Z,0
2017-09-11T01:41:27.872Z,0
2017-09-11T01:42:08.461Z,0
2017-09-11T01:42:49.046Z,0
2017-09-11T01:43:29.630Z,0
2017-09-11T01:44:10.212Z,0
2017-09-11T01:44:50.779Z,0
2017-09-11T01:45:31.355Z,0
2017-09-11T01:46:11.935Z,0
2017-09-11T01:48:45.130Z,0
2017-09-11T01:49:25.698Z,0
2017-09-11T01:50:06.283Z,0
2017-09-11T01:50:46.860Z,0
2017-09-11T01:51:27.432Z,0
2017-09-11T01:52:08.017Z,0
2017-09-11T01:52:48.602Z,0
2017-09-11T01:53:29.183Z,0
2017-09-11T01:54:09.761Z,0
2017-09-11T01:54:50.340Z,0
2017-09-11T01:55:30.913Z,0
2017-09-11T01:56:11.501Z,0
2017-09-11T01:56:52.077Z,0
2017-09-11T01:57:32.662Z,0
2017-09-11T01:58:13.237Z,0
2017-09-11T01:58:53.819Z,0
2017-09-11T01:59:34.397Z,0
2017-09-11T02:00:14.967Z,0
2017-09-11T02:00:55.542Z,0
2017-09-11T02:01:36.123Z,0
2017-09-11T02:02:16.704Z,0
2017-09-11T02:02:57.288Z,0
2017-09-11T02:03:37.869Z,0
2017-09-11T02:04:18.449Z,0
2017-09-11T02:04:59.028Z,0
2017-09-11T02:05:39.615Z,0
2017-09-11T02:06:20.188Z,0
2017-09-11T02:07:00.766Z,0
2017-09-11T02:07:41.338Z,0
2017-09-11T02:08:21.924Z,0
2017-09-11T02:09:02.493Z,0
2017-09-11T02:09:43.064Z,0
2017-09-11T02:10:23.640Z,0
2017-09-11T02:11:04.229Z,0
2017-09-11T02:11:44.793Z,0
2017-09-11T02:12:25.378Z,0
2017-09-11T02:13:05.946Z,0
2017-09-11T02:13:46.518Z,0
2017-09-11T02:14:27.114Z,0
2017-09-11T02:15:07.686Z,0
2017-09-11T02:15:48.262Z,0
2017-09-11T02:16:28.840Z,0
2017-09-11T02:17:09.423Z,0
2017-09-11T02:17:49.995Z,0
2017-09-11T02:18:30.578Z,0
2017-09-11T02:19:11.164Z,0
2017-09-11T02:19:51.749Z,0
2017-09-11T02:20:32.325Z,0
2017-09-11T02:21:12.903Z,0
2017-09-11T02:21:53.482Z,0
2017-09-11T02:22:34.064Z,0
2017-09-11T02:23:14.652Z,0
2017-09-11T02:23:55.234Z,0
2017-09-11T02:24:35.821Z,0
2017-09-11T02:25:16.387Z,0
2017-09-11T02:25:56.975Z,0
2017-09-11T02:26:37.564Z,0
2017-09-11T02:27:18.143Z,0
2017-09-11T02:27:58.715Z,0
2017-09-11T02:28:39.292Z,0
2017-09-11T02:29:19.869Z,0
2017-09-11T02:30:00.455Z,0
2017-09-11T02:30:41.033Z,0
2017-09-11T02:31:21.611Z,0
2017-09-11T02:32:02.176Z,0
2017-09-11T02:32:42.737Z,0
2017-09-11T02:33:23.320Z,0
2017-09-11T02:34:03.893Z,0
2017-09-11T02:34:44.464Z,0
2017-09-11T02:35:25.057Z,0
2017-09-11T02:36:05.631Z,0
2017-09-11T02:36:46.212Z,0
2017-09-11T02:37:26.796Z,0
2017-09-11T02:38:07.372Z,0
2017-09-11T02:38:47.947Z,0
2017-09-11T02:39:28.526Z,0
2017-09-11T02:40:09.101Z,0
2017-09-11T02:40:49.681Z,0
2017-09-11T02:41:30.258Z,0
2017-09-11T02:42:10.836Z,0
2017-09-11T02:42:51.409Z,0
2017-09-11T02:43:31.988Z,0
2017-09-11T02:44:12.568Z,0
2017-09-11T02:44:53.145Z,0
2017-09-11T02:45:33.725Z,0
2017-09-11T02:46:14.297Z,0
2017-09-11T02:46:54.879Z,0
2017-09-11T02:47:35.453Z,0
2017-09-11T02:48:16.037Z,0
2017-09-11T02:48:56.619Z,0
2017-09-11T02:49:37.199Z,0
2017-09-11T02:50:17.779Z,0
2017-09-11T02:50:58.350Z,0
2017-09-11T02:51:38.929Z,0
2017-09-11T02:52:19.512Z,0
2017-09-11T02:53:00.088Z,0
2017-09-11T02:53:40.668Z,0
2017-09-11T02:54:21.247Z,0
2017-09-11T02:55:01.823Z,0
2017-09-11T02:55:42.404Z,0
2017-09-11T02:56:22.982Z,0
2017-09-11T02:57:03.556Z,0
2017-09-11T02:57:44.130Z,0
2017-09-11T02:58:24.705Z,0
2017-09-11T02:59:05.286Z,0
2017-09-11T02:59:45.883Z,0
2017-09-11T03:00:26.444Z,0
2017-09-11T03:01:07.029Z,0
2017-09-11T03:01:47.613Z,0
2017-09-11T03:02:28.200Z,0
2017-09-11T03:03:08.768Z,0
2017-09-11T03:03:49.349Z,0
2017-09-11T03:04:29.930Z,0
2017-09-11T03:05:10.505Z,0
2017-09-11T03:05:51.088Z,0
2017-09-11T03:06:31.675Z,0
2017-09-11T03:07:12.241Z,0
2017-09-11T03:07:52.827Z,0
2017-09-11T03:08:33.392Z,0
2017-09-11T03:09:14.009Z,0
2017-09-11T03:09:54.558Z,0
2017-09-11T03:10:35.132Z,0
2017-09-11T03:11:15.716Z,0
2017-09-11T03:11:56.287Z,0
2017-09-11T03:12:36.871Z,0
2017-09-11T03:13:17.447Z,0
2017-09-11T03:13:58.029Z,0
2017-09-11T03:14:38.611Z,0
2017-09-11T03:15:19.188Z,0
2017-09-11T03:15:59.750Z,0
2017-09-11T03:16:40.326Z,0
2017-09-11T03:17:20.900Z,0
2017-09-11T03:18:01.485Z,0
2017-09-11T03:18:42.058Z,0
2017-09-11T03:19:22.636Z,0
2017-09-11T03:20:03.225Z,0
2017-09-11T03:20:43.794Z,0
2017-09-11T03:21:24.367Z,0
2017-09-11T03:22:04.958Z,0
2017-09-11T03:22:45.534Z,0
2017-09-11T03:23:26.112Z,0
2017-09-11T03:24:06.689Z,0
2017-09-11T03:24:47.269Z,0
2017-09-11T03:25:27.861Z,0
2017-09-11T03:26:08.441Z,0
2017-09-11T03:26:49.025Z,0
2017-09-11T03:27:29.601Z,0
2017-09-11T03:28:10.183Z,0
2017-09-11T03:28:50.757Z,0
2017-09-11T03:29:31.334Z,0
2017-09-11T03:30:11.923Z,0
2017-09-11T03:30:52.495Z,0
2017-09-11T03:31:33.071Z,0
2017-09-11T03:32:13.650Z,0
2017-09-11T03:34:31.595Z,0
2017-09-11T03:35:12.184Z,0
2017-09-11T03:35:52.764Z,0
2017-09-11T03:36:33.330Z,0
2017-09-11T03:37:13.909Z,0
2017-09-11T03:37:54.491Z,0
2017-09-11T03:38:35.076Z,0
2017-09-11T03:39:15.659Z,0
2017-09-11T03:39:56.246Z,0
2017-09-11T03:40:36.818Z,0
2017-09-11T03:41:17.400Z,0
2017-09-11T03:41:57.975Z,0
2017-09-11T03:42:38.555Z,0
2017-09-11T03:43:19.137Z,0
2017-09-11T03:43:59.719Z,0
2017-09-11T03:44:40.292Z,0
2017-09-11T03:45:20.875Z,0
2017-09-11T03:46:01.454Z,0
2017-09-11T03:46:42.025Z,0
2017-09-11T03:47:22.593Z,0
2017-09-11T03:48:03.171Z,0
2017-09-11T03:48:43.739Z,0
2017-09-11T03:49:24.314Z,0
2017-09-11T03:50:04.886Z,0
2017-09-11T03:50:45.464Z,0
2017-09-11T03:51:26.044Z,0
2017-09-11T03:52:06.632Z,0
2017-09-11T03:52:47.221Z,0
2017-09-11T03:53:27.787Z,0
2017-09-11T03:54:08.363Z,0
2017-09-11T03:54:48.938Z,0
2017-09-11T03:55:29.557Z,0
2017-09-11T03:56:10.106Z,0
2017-09-11T03:56:50.672Z,0
2017-09-11T03:57:31.251Z,0
2017-09-11T03:58:11.829Z,0
2017-09-11T03:58:52.417Z,0
2017-09-11T03:59:33.000Z,0
2017-09-11T04:00:13.586Z,0
2017-09-11T04:00:54.165Z,0
2017-09-11T04:01:34.736Z,0
2017-09-11T04:02:15.311Z,0
2017-09-11T04:02:55.886Z,0
2017-09-11T04:03:36.465Z,0
2017-09-11T04:04:17.047Z,0
2017-09-11T04:04:57.624Z,0
2017-09-11T04:05:38.204Z,0
2017-09-11T04:06:18.786Z,0
2017-09-11T04:06:59.370Z,0
2017-09-11T04:07:39.945Z,0
2017-09-11T04:08:20.519Z,0
2017-09-11T04:09:01.100Z,0
2017-09-11T04:09:41.677Z,0
2017-09-11T04:10:22.255Z,0
2017-09-11T04:11:02.831Z,0
2017-09-11T04:11:43.405Z,0
2017-09-11T04:12:23.979Z,0
2017-09-11T04:13:04.552Z,0
2017-09-11T04:13:45.143Z,0
2017-09-11T04:14:25.728Z,0
2017-09-11T04:15:06.306Z,0
2017-09-11T04:15:46.886Z,4
2017-09-11T04:16:27.463Z,4
2017-09-11T04:17:08.035Z,4
2017-09-11T04:17:48.612Z,4
2017-09-11T04:18:29.190Z,0
2017-09-11T04:19:09.767Z,4
2017-09-11T04:19:50.354Z,4
2017-09-11T04:20:30.940Z,4
2017-09-11T04:21:11.512Z,4
2017-09-11T04:21:52.091Z,4
2017-09-11T04:22:32.672Z,8
2017-09-11T04:23:13.243Z,8
2017-09-11T04:23:53.825Z,12
2017-09-11T04:24:34.410Z,12
2017-09-11T04:25:14.992Z,12
2017-09-11T04:25:55.558Z,12
2017-09-11T04:26:36.140Z,16
2017-09-11T04:27:16.727Z,16
2017-09-11T04:27:57.292Z,16
2017-09-11T04:28:37.872Z,24
2017-09-11T04:29:18.437Z,24
2017-09-11T04:29:59.010Z,28
2017-09-11T04:30:39.586Z,32
2017-09-11T04:31:20.166Z,36
2017-09-11T04:32:00.743Z,44
2017-09-11T04:32:41.312Z,48
2017-09-11T04:33:21.884Z,56
2017-09-11T04:34:02.462Z,56
2017-09-11T04:34:43.031Z,64
2017-09-11T04:35:23.614Z,76
2017-09-11T04:36:04.196Z,80
2017-09-11T04:36:44.764Z,92
2017-09-11T04:37:25.350Z,104
2017-09-11T04:38:05.920Z,112
2017-09-11T04:38:46.501Z,124
2017-09-11T04:39:27.086Z,136
2017-09-11T04:40:07.666Z,148
2017-09-11T04:40:48.250Z,164
2017-09-11T04:41:28.831Z,172
2017-09-11T04:42:09.404Z,188
2017-09-11T04:42:49.981Z,204
2017-09-11T04:43:30.562Z,220
2017-09-11T04:44:11.148Z,240
2017-09-11T04:44:51.722Z,256
2017-09-11T04:45:32.292Z,280
2017-09-11T04:46:12.869Z,300
2017-09-11T04:46:53.449Z,324
2017-09-11T04:47:34.025Z,344
2017-09-11T04:48:14.597Z,364
2017-09-11T04:48:55.184Z,388
2017-09-11T04:49:35.771Z,416
2017-09-11T04:50:16.340Z,440
2017-09-11T04:50:56.922Z,468
2017-09-11T04:51:37.496Z,496
2017-09-11T04:52:18.077Z,528
2017-09-11T04:52:58.658Z,560
2017-09-11T04:53:39.240Z,588
2017-09-11T04:54:20.497Z,620
2017-09-11T04:55:01.074Z,652
2017-09-11T04:55:41.646Z,692
2017-09-11T04:56:22.226Z,732
2017-09-11T04:57:02.802Z,772
2017-09-11T04:57:43.382Z,812
2017-09-11T04:58:23.963Z,852
2017-09-11T04:59:04.544Z,892
2017-09-11T04:59:45.126Z,936
2017-09-11T05:00:25.701Z,972
2017-09-11T05:01:06.273Z,1016
2017-09-11T05:01:46.847Z,1064
2017-09-11T05:02:27.429Z,1112
2017-09-11T05:03:08.007Z,1160
2017-09-11T05:03:48.586Z,1208
2017-09-11T05:04:29.153Z,1260
2017-09-11T05:05:09.735Z,1316
2017-09-11T05:05:50.310Z,1368
2017-09-11T05:06:30.880Z,1420
2017-09-11T05:07:11.454Z,1476
2017-09-11T05:07:52.032Z,1532
2017-09-11T05:08:32.621Z,1596
2017-09-11T05:09:13.208Z,1664
2017-09-11T05:09:53.786Z,1740
2017-09-11T05:10:34.369Z,1840
2017-09-11T05:11:14.933Z,1952
2017-09-11T05:11:55.517Z,2100
2017-09-11T05:12:36.092Z,2240
2017-09-11T05:13:16.674Z,2376
2017-09-11T05:13:57.257Z,2496
2017-09-11T05:14:37.843Z,2616
2017-09-11T05:15:18.416Z,2752
2017-09-11T05:15:58.994Z,2860
2017-09-11T05:16:39.573Z,2892
2017-09-11T05:17:20.156Z,2884
2017-09-11T05:18:00.735Z,2860
2017-09-11T05:18:41.314Z,2832
2017-09-11T05:19:21.890Z,2776
2017-09-11T05:20:02.471Z,2684
2017-09-11T05:20:43.047Z,2632
2017-09-11T05:21:23.626Z,2596
2017-09-11T05:22:04.201Z,2564
2017-09-11T05:22:44.805Z,2532
2017-09-11T05:23:25.362Z,2512
2017-09-11T05:24:05.924Z,2488
2017-09-11T05:24:46.508Z,2472
2017-09-11T05:25:27.087Z,2468
2017-09-11T05:26:07.669Z,2488
2017-09-11T05:26:48.247Z,2548
2017-09-11T05:27:28.826Z,2612
2017-09-11T05:28:09.409Z,2648
2017-09-11T05:28:49.988Z,2656
2017-09-11T05:29:30.570Z,2652
2017-09-11T05:30:11.135Z,2684
2017-09-11T05:30:51.718Z,2728
2017-09-11T05:31:32.294Z,2776
2017-09-11T05:32:12.879Z,2876
2017-09-11T05:32:53.469Z,2988
2017-09-11T05:33:34.039Z,3124
2017-09-11T05:34:14.611Z,3296
2017-09-11T05:34:55.189Z,3432
2017-09-11T05:35:35.778Z,3644
2017-09-11T05:36:16.353Z,3912
2017-09-11T05:38:34.297Z,4820
2017-09-11T05:39:14.876Z,4888
2017-09-11T05:39:55.466Z,4848
2017-09-11T05:40:36.026Z,4772
2017-09-11T05:41:16.618Z,4676
2017-09-11T05:41:57.198Z,4492
2017-09-11T05:42:37.778Z,4252
2017-09-11T05:43:18.345Z,4072
2017-09-11T05:43:58.935Z,4016
2017-09-11T05:44:39.528Z,4128
2017-09-11T05:45:20.107Z,4428
2017-09-11T05:46:00.690Z,4780
2017-09-11T05:46:41.268Z,5028
2017-09-11T05:47:21.845Z,5144
2017-09-11T05:48:02.424Z,5256
2017-09-11T05:48:42.994Z,5448
2017-09-11T05:49:23.568Z,5692
2017-09-11T05:50:04.141Z,5948
2017-09-11T05:50:44.724Z,6036
2017-09-11T05:51:25.303Z,6084
2017-09-11T05:52:05.891Z,6088
2017-09-11T05:52:46.473Z,6076
2017-09-11T05:53:27.052Z,6208
2017-09-11T05:54:07.641Z,6316
2017-09-11T05:54:48.220Z,6004
2017-09-11T05:55:28.795Z,5680
2017-09-11T05:56:09.377Z,5516
2017-09-11T05:56:49.945Z,5500
2017-09-11T05:57:30.524Z,5472
2017-09-11T05:58:11.097Z,5456
2017-09-11T05:58:51.680Z,5504
2017-09-11T05:59:32.258Z,5572
2017-09-11T06:00:12.843Z,5760
2017-09-11T06:00:53.423Z,5844
2017-09-11T06:01:34.008Z,5908
2017-09-11T06:02:14.585Z,5992
2017-09-11T06:02:55.157Z,6120
2017-09-11T06:03:35.743Z,6268
2017-09-11T06:04:16.334Z,6500
2017-09-11T06:04:56.905Z,6976
2017-09-11T06:05:37.493Z,7492
2017-09-11T06:06:18.072Z,7848
2017-09-11T06:06:58.647Z,8088
2017-09-11T06:07:39.230Z,8440
2017-09-11T06:08:19.798Z,8796
2017-09-11T06:09:00.397Z,9052
2017-09-11T06:09:40.982Z,9232
2017-09-11T06:10:21.562Z,9132
2017-09-11T06:11:02.162Z,8784
2017-09-11T06:11:42.742Z,8196
2017-09-11T06:12:23.345Z,7632
2017-09-11T06:13:03.899Z,7284
2017-09-11T06:13:44.478Z,7232
2017-09-11T06:14:25.052Z,7456
2017-09-11T06:15:05.640Z,7720
2017-09-11T06:15:46.195Z,7612
2017-09-11T06:16:26.775Z,7488
2017-09-11T06:17:07.353Z,7260
2017-09-11T06:17:47.923Z,6972
2017-09-11T06:18:28.512Z,6704
2017-09-11T06:19:09.099Z,6296
2017-09-11T06:19:49.669Z,5836
2017-09-11T06:20:30.244Z,5628
2017-09-11T06:21:10.840Z,5760
2017-09-11T06:21:51.410Z,6044
2017-09-11T06:22:31.989Z,6456
2017-09-11T06:23:12.564Z,6760
2017-09-11T06:23:53.140Z,6988
2017-09-11T06:24:33.710Z,7272
2017-09-11T06:25:14.291Z,7604
2017-09-11T06:25:54.874Z,7904
2017-09-11T06:26:35.451Z,8136
2017-09-11T06:27:16.043Z,8336
2017-09-11T06:27:56.626Z,8344
2017-09-11T06:28:37.205Z,8332
2017-09-11T06:29:17.797Z,8552
2017-09-11T06:29:58.366Z,8948
2017-09-11T06:30:38.946Z,9360
2017-09-11T06:31:19.531Z,9624
2017-09-11T06:32:00.109Z,9868
2017-09-11T06:32:40.699Z,9996
2017-09-11T06:33:21.286Z,10108
2017-09-11T06:34:01.865Z,10324
2017-09-11T06:34:42.444Z,10524
2017-09-11T06:35:23.020Z,10772
2017-09-11T06:36:03.597Z,11036
2017-09-11T06:36:44.179Z,11108
2017-09-11T06:37:24.759Z,11124
2017-09-11T06:38:05.339Z,11104
2017-09-11T06:38:45.923Z,11216
2017-09-11T06:39:26.500Z,11248
2017-09-11T06:40:07.086Z,11096
2017-09-11T06:40:47.670Z,10928
2017-09-11T06:41:28.250Z,10844
2017-09-11T06:42:08.833Z,10788
2017-09-11T06:42:49.410Z,10732
2017-09-11T06:43:29.984Z,11356
2017-09-11T06:44:10.566Z,11692
2017-09-11T06:44:51.153Z,12116
2017-09-11T06:45:31.735Z,12180
2017-09-11T06:46:12.313Z,11864
2017-09-11T06:46:52.899Z,11176
2017-09-11T06:47:33.482Z,10836
2017-09-11T06:48:14.064Z,10544
2017-09-11T06:48:54.643Z,10236
2017-09-11T06:49:35.221Z,9856
2017-09-11T06:50:15.797Z,9380
2017-09-11T06:50:56.382Z,9008
2017-09-11T06:51:36.960Z,8760
2017-09-11T06:52:17.570Z,8632
2017-09-11T06:52:58.124Z,8628
2017-09-11T06:53:38.698Z,8700
2017-09-11T06:54:19.282Z,8752
2017-09-11T06:54:59.865Z,8816
2017-09-11T06:55:40.437Z,8952
2017-09-11T06:56:21.022Z,9036
2017-09-11T06:57:01.604Z,9136
2017-09-11T06:57:42.181Z,9188
2017-09-11T06:58:22.764Z,9024
2017-09-11T06:59:03.343Z,8872
2017-09-11T06:59:43.926Z,8768
2017-09-11T07:00:24.503Z,8592
2017-09-11T07:01:05.075Z,8440
2017-09-11T07:01:45.655Z,8312
2017-09-11T07:02:26.235Z,8256
2017-09-11T07:03:06.816Z,8300
2017-09-11T07:03:47.394Z,8392
2017-09-11T07:04:27.984Z,8592
2017-09-11T07:05:08.561Z,8784
2017-09-11T07:05:49.136Z,9036
2017-09-11T07:06:29.724Z,9152
2017-09-11T07:07:10.307Z,9088
2017-09-11T07:07:50.891Z,8696
2017-09-11T07:08:31.460Z,8280
2017-09-11T07:09:12.046Z,7888
2017-09-11T07:09:52.623Z,7640
2017-09-11T07:10:33.201Z,7692
2017-09-11T07:11:13.786Z,7876
2017-09-11T07:11:54.361Z,8112
2017-09-11T07:12:34.932Z,8736
2017-09-11T07:13:15.502Z,9448
2017-09-11T07:13:56.077Z,10240
2017-09-11T07:14:36.657Z,10612
2017-09-11T07:15:17.246Z,10988
2017-09-11T07:15:57.824Z,11436
2017-09-11T07:16:38.403Z,11604
2017-09-11T07:17:18.984Z,11640
2017-09-11T07:17:59.570Z,12112
2017-09-11T07:18:40.141Z,12776
2017-09-11T07:19:20.733Z,14124
2017-09-11T07:20:01.317Z,15372
2017-09-11T07:20:41.884Z,15744
2017-09-11T07:21:22.466Z,16704
2017-09-11T07:22:03.044Z,16288
2017-09-11T07:22:43.622Z,17824
2017-09-11T07:23:24.198Z,23776
2017-09-11T07:24:04.779Z,23968
2017-09-11T07:24:45.359Z,43040
2017-09-11T07:25:25.942Z,27648
2017-09-11T07:26:06.517Z,22304
2017-09-11T07:26:47.088Z,20672
2017-09-11T07:27:27.662Z,18368
2017-09-11T07:28:08.233Z,17408
2017-09-11T07:28:48.822Z,16480
2017-09-11T07:29:29.400Z,15876
2017-09-11T07:30:09.988Z,14904
2017-09-11T07:30:50.567Z,14216
2017-09-11T07:31:31.132Z,13620
2017-09-11T07:32:11.712Z,13312
2017-09-11T07:32:52.293Z,13560
2017-09-11T07:33:32.867Z,14280
2017-09-11T07:34:13.448Z,15424
2017-09-11T07:34:54.036Z,17760
2017-09-11T07:35:34.615Z,22944
2017-09-11T07:36:15.199Z,21056
2017-09-11T07:36:55.773Z,20352
2017-09-11T07:37:36.362Z,19840
2017-09-11T07:38:16.952Z,22240
2017-09-11T07:38:57.515Z,23328
2017-09-11T07:39:38.100Z,20544
2017-09-11T07:40:18.679Z,19776
2017-09-11T07:40:59.264Z,18624
2017-09-11T07:41:39.837Z,18912
2017-09-11T07:42:20.412Z,18880
2017-09-11T07:43:00.986Z,19136
2017-09-11T07:43:41.570Z,19264
2017-09-11T07:44:22.153Z,18432
2017-09-11T07:45:02.732Z,18048
2017-09-11T07:45:43.312Z,18496
2017-09-11T07:46:23.895Z,19744
2017-09-11T07:47:04.473Z,21088
2017-09-11T07:47:45.063Z,22752
2017-09-11T07:48:25.642Z,24064
2017-09-11T07:49:06.233Z,25088
2017-09-11T07:49:46.804Z,27040
2017-09-11T07:50:27.384Z,27296
2017-09-11T07:51:07.968Z,28288
2017-09-11T07:51:48.552Z,24512
2017-09-11T07:52:29.136Z,24128
2017-09-11T07:53:09.712Z,22592
2017-09-11T07:53:50.295Z,21280
2017-09-11T07:54:30.878Z,20672
2017-09-11T07:55:11.448Z,20064
2017-09-11T07:55:52.028Z,20448
2017-09-11T07:56:32.595Z,22560
2017-09-11T07:57:13.178Z,52864
2017-09-11T07:57:53.769Z,45312
2017-09-11T07:58:34.355Z,73440
2017-09-11T07:59:14.946Z,43264
2017-09-11T07:59:55.528Z,52960
2017-09-11T08:00:36.102Z,43648
2017-09-11T08:01:16.682Z,78560
2017-09-11T08:01:57.271Z,37088
2017-09-11T08:02:37.834Z,54240
2017-09-11T08:03:18.420Z,55904
2017-09-11T08:03:59.003Z,35936
2017-09-11T08:04:39.585Z,65728
2017-09-11T08:05:20.171Z,30496
2017-09-11T08:06:00.761Z,32000
2017-09-11T08:06:41.349Z,59968
2017-09-11T08:07:21.934Z,32192
2017-09-11T08:08:02.521Z,27040
2017-09-11T08:08:43.107Z,24672
2017-09-11T08:09:23.692Z,19904
2017-09-11T08:10:04.276Z,18304
2017-09-11T08:10:44.851Z,17568
2017-09-11T08:11:25.433Z,17760
2017-09-11T08:12:06.025Z,18144
2017-09-11T08:12:46.609Z,23968
2017-09-11T08:13:27.189Z,14328
2017-09-11T08:14:07.779Z,12908
2017-09-11T08:14:48.361Z,11952
2017-09-11T08:15:28.939Z,38688
2017-09-11T08:16:09.520Z,68192
2017-09-11T08:16:50.117Z,74976
2017-09-11T08:17:30.689Z,74784
2017-09-11T08:18:11.268Z,75040
2017-09-11T08:18:51.861Z,75744
2017-09-11T08:19:32.453Z,76544
2017-09-11T08:21:50.433Z,76320
2017-09-11T08:22:31.020Z,74720
2017-09-11T08:23:11.615Z,74848
2017-09-11T08:23:52.199Z,75072
2017-09-11T08:24:32.794Z,75104
2017-09-11T08:25:13.380Z,74816
2017-09-11T08:25:53.963Z,75040
2017-09-11T08:26:34.565Z,74848
2017-09-11T08:27:15.149Z,75392
2017-09-11T08:27:55.736Z,75936
2017-09-11T08:28:36.321Z,76256
2017-09-11T08:29:16.902Z,76064
2017-09-11T08:29:57.496Z,76672
2017-09-11T08:30:38.077Z,76032
2017-09-11T08:31:18.676Z,76320
2017-09-11T08:31:59.255Z,77024
2017-09-11T08:32:39.849Z,76768
2017-09-11T08:33:20.436Z,77088
2017-09-11T08:34:01.028Z,77696
2017-09-11T08:34:41.613Z,77952
2017-09-11T08:35:22.199Z,77888
2017-09-11T08:36:02.793Z,78016
2017-09-11T08:36:43.382Z,78144
2017-09-11T08:37:23.968Z,77216
2017-09-11T08:38:04.561Z,76992
2017-09-11T08:38:45.150Z,75808
2017-09-11T08:39:25.740Z,75296
2017-09-11T08:40:06.329Z,75424
2017-09-11T08:40:46.926Z,76480
2017-09-11T08:41:27.522Z,77792
2017-09-11T08:42:08.110Z,78624
2017-09-11T08:43:03.325Z,79008
2017-09-11T08:43:43.922Z,79104
2017-09-11T08:44:24.513Z,78560
2017-09-11T08:45:05.104Z,77984
2017-09-11T08:45:45.699Z,77536
2017-09-11T08:46:26.290Z,79072
2017-09-11T08:47:06.884Z,80128
2017-09-11T08:47:47.487Z,79968
2017-09-11T08:48:28.084Z,71392
2017-09-11T08:49:08.678Z,67712
2017-09-11T08:49:49.265Z,55072
2017-09-11T08:50:29.857Z,82624
2017-09-11T08:51:10.454Z,82176
2017-09-11T08:51:51.041Z,81152
2017-09-11T08:52:31.632Z,80704
2017-09-11T08:53:12.228Z,83488
2017-09-11T08:53:52.835Z,86912
2017-09-11T08:54:33.425Z,88256
2017-09-11T08:55:14.016Z,94048
2017-09-11T08:55:54.607Z,32672
2017-09-11T08:56:35.199Z,31712
2017-09-11T08:57:15.789Z,38176
2017-09-11T08:57:56.385Z,37280
2017-09-11T08:58:36.980Z,27648
2017-09-11T08:59:17.580Z,55808
2017-09-11T08:59:58.165Z,82432
2017-09-11T09:00:38.752Z,33600
2017-09-11T09:01:19.334Z,86304
2017-09-11T09:01:59.923Z,84608
2017-09-11T09:02:40.512Z,84192
2017-09-11T09:03:21.106Z,84000
2017-09-11T09:04:01.700Z,68512
2017-09-11T09:04:42.281Z,71296
2017-09-11T09:05:22.875Z,77216
2017-09-11T09:06:03.462Z,84544
2017-09-11T09:06:44.054Z,83744
2017-09-11T09:07:24.639Z,57120
2017-09-11T09:08:05.219Z,14344
2017-09-11T09:08:45.812Z,86592
2017-09-11T09:09:26.397Z,86272
2017-09-11T09:10:06.984Z,85472
2017-09-11T09:10:47.570Z,85696
2017-09-11T09:11:28.159Z,86848
2017-09-11T09:12:08.749Z,88896
2017-09-11T09:12:49.345Z,90944
2017-09-11T09:13:29.932Z,92768
2017-09-11T09:14:10.528Z,92640
2017-09-11T09:14:51.122Z,92352
2017-09-11T09:15:31.718Z,92800
2017-09-11T09:16:12.311Z,91584
2017-09-11T09:16:52.904Z,88320
2017-09-11T09:17:33.498Z,89856
2017-09-11T09:18:14.097Z,89632
2017-09-11T09:18:54.680Z,88064
2017-09-11T09:19:35.267Z,93344
2017-09-11T09:20:15.839Z,99232
2017-09-11T09:20:56.428Z,83392
2017-09-11T09:21:37.023Z,57504
2017-09-11T09:22:17.624Z,31808
2017-09-11T09:22:58.204Z,30016
2017-09-11T09:23:38.805Z,30528
2017-09-11T09:24:19.394Z,31808
2017-09-11T09:24:59.980Z,35104
2017-09-11T09:25:40.569Z,36768
2017-09-11T09:26:21.170Z,39232
2017-09-11T09:27:01.759Z,34528
2017-09-11T09:27:42.343Z,32192
2017-09-11T09:28:22.941Z,30400
2017-09-11T09:29:03.531Z,30656
2017-09-11T09:29:44.120Z,30048